AAL983 BGSF-CYDF
Flight info
| Callsign | AAL983 |
|---|---|
| Flight time | N/A |
| Altitude | 28000 |
| Route | BAVKO1A BAVKO Y67 MA/M077F380 DCT 58N055W/N0435F380 54N056W DCT MELDI DCT VIDSI |
| Aircraft | A20N/M-SDE2E3FGHIRWXY/LB1 |
Departure
| Time | 2026-04-19 11:13 |
|---|---|
| Airport | Kangerlussuaq International Airport (BGSF) |
Arrival
| Time | N/A |
|---|---|
| Airport | Deer Lake Airport (CYDF) |
| Time | Latitude | Longitude | Altitude | Speed | Heading |
|---|---|---|---|---|---|
| 2026-04-19 11:05 | 67.00758 | -50.71718 | 138 ft | 0 kts | 150° |
| 2026-04-19 11:09 | 67.00743 | -50.71803 | 137 ft | 15 kts | 274° |
| 2026-04-19 11:09 | 67.00841 | -50.71983 | 137 ft | 20 kts | 329° |
| 2026-04-19 11:09 | 67.00968 | -50.72194 | 136 ft | 24 kts | 294° |
| 2026-04-19 11:10 | 67.00901 | -50.72639 | 132 ft | 29 kts | 241° |
| 2026-04-19 11:10 | 67.00811 | -50.73073 | 127 ft | 26 kts | 242° |
| 2026-04-19 11:10 | 67.00719 | -50.73508 | 118 ft | 29 kts | 240° |
| 2026-04-19 11:10 | 67.00617 | -50.73954 | 116 ft | 27 kts | 227° |
| 2026-04-19 11:11 | 67.00501 | -50.74254 | 112 ft | 15 kts | 266° |
| 2026-04-19 11:11 | 67.00530 | -50.74314 | 112 ft | 8 kts | 5° |
| 2026-04-19 11:11 | 67.00568 | -50.74242 | 113 ft | 5 kts | 57° |
| 2026-04-19 11:11 | 67.00570 | -50.74235 | 113 ft | 0 kts | 58° |
| 2026-04-19 11:12 | 67.00617 | -50.74028 | 115 ft | 41 kts | 60° |
| 2026-04-19 11:12 | 67.00861 | -50.72861 | 127 ft | 108 kts | 62° |
| 2026-04-19 11:12 | 67.01324 | -50.70700 | 156 ft | 166 kts | 60° |
| 2026-04-19 11:12 | 67.01909 | -50.67891 | 522 ft | 183 kts | 62° |
| 2026-04-19 11:13 | 67.02484 | -50.64894 | 1097 ft | 196 kts | 64° |
| 2026-04-19 11:13 | 67.03021 | -50.61435 | 1443 ft | 230 kts | 77° |
| 2026-04-19 11:13 | 67.03273 | -50.57091 | 1889 ft | 257 kts | 84° |
| 2026-04-19 11:13 | 67.03403 | -50.52482 | 2876 ft | 258 kts | 87° |
| 2026-04-19 11:14 | 67.03095 | -50.48070 | 3848 ft | 252 kts | 118° |
| 2026-04-19 11:14 | 67.01881 | -50.44951 | 4701 ft | 251 kts | 155° |
| 2026-04-19 11:14 | 67.00180 | -50.44301 | 5556 ft | 252 kts | 191° |
| 2026-04-19 11:14 | 66.98651 | -50.46379 | 6417 ft | 255 kts | 225° |
| 2026-04-19 11:15 | 66.97852 | -50.50455 | 7150 ft | 265 kts | 256° |
| 2026-04-19 11:15 | 66.97584 | -50.55159 | 7892 ft | 269 kts | 252° |
| 2026-04-19 11:15 | 66.96820 | -50.59440 | 8659 ft | 265 kts | 230° |
| 2026-04-19 11:15 | 66.95626 | -50.62999 | 9445 ft | 264 kts | 221° |
| 2026-04-19 11:16 | 66.94262 | -50.66177 | 10146 ft | 268 kts | 217° |
| 2026-04-19 11:16 | 66.92774 | -50.69202 | 10450 ft | 287 kts | 214° |
| 2026-04-19 11:16 | 66.91124 | -50.72357 | 10776 ft | 306 kts | 214° |
| 2026-04-19 11:16 | 66.89377 | -50.75663 | 11337 ft | 316 kts | 214° |
| 2026-04-19 11:17 | 66.87609 | -50.79057 | 12083 ft | 321 kts | 215° |
| 2026-04-19 11:17 | 66.85825 | -50.82538 | 12869 ft | 325 kts | 216° |
| 2026-04-19 11:17 | 66.84033 | -50.86076 | 13645 ft | 328 kts | 216° |
| 2026-04-19 11:17 | 66.82219 | -50.89683 | 14286 ft | 332 kts | 216° |
| 2026-04-19 11:18 | 66.80389 | -50.93329 | 14914 ft | 336 kts | 217° |
| 2026-04-19 11:18 | 66.78539 | -50.97015 | 15543 ft | 340 kts | 217° |
| 2026-04-19 11:18 | 66.76666 | -51.00737 | 16172 ft | 344 kts | 217° |
| 2026-04-19 11:18 | 66.74795 | -51.04446 | 16764 ft | 348 kts | 217° |
| 2026-04-19 11:19 | 66.72878 | -51.08237 | 17361 ft | 352 kts | 218° |
| 2026-04-19 11:19 | 66.70930 | -51.12079 | 17975 ft | 356 kts | 218° |
| 2026-04-19 11:19 | 66.68965 | -51.15942 | 18528 ft | 360 kts | 218° |
| 2026-04-19 11:19 | 66.66973 | -51.19851 | 19047 ft | 364 kts | 219° |
| 2026-04-19 11:20 | 66.64962 | -51.23789 | 19582 ft | 367 kts | 219° |
| 2026-04-19 11:20 | 66.62937 | -51.27746 | 20111 ft | 370 kts | 220° |
| 2026-04-19 11:20 | 66.60889 | -51.31741 | 20644 ft | 373 kts | 220° |
| 2026-04-19 11:20 | 66.58834 | -51.35740 | 21178 ft | 375 kts | 221° |
| 2026-04-19 11:21 | 66.56757 | -51.39775 | 21706 ft | 378 kts | 221° |
| 2026-04-19 11:21 | 66.54669 | -51.43821 | 22215 ft | 381 kts | 222° |
| 2026-04-19 11:21 | 66.52559 | -51.47900 | 22709 ft | 383 kts | 222° |
| 2026-04-19 11:22 | 66.48313 | -51.56082 | 23616 ft | 388 kts | 223° |
| 2026-04-19 11:22 | 66.46194 | -51.60149 | 23986 ft | 390 kts | 223° |
| 2026-04-19 11:22 | 66.44037 | -51.64282 | 24364 ft | 392 kts | 223° |
| 2026-04-19 11:22 | 66.41866 | -51.68431 | 24748 ft | 393 kts | 223° |
| 2026-04-19 11:23 | 66.39678 | -51.72602 | 25108 ft | 395 kts | 223° |
| 2026-04-19 11:23 | 66.37487 | -51.76770 | 25453 ft | 397 kts | 222° |
| 2026-04-19 11:23 | 66.35286 | -51.80949 | 25803 ft | 399 kts | 222° |
| 2026-04-19 11:23 | 66.33077 | -51.85132 | 26148 ft | 400 kts | 222° |
| 2026-04-19 11:24 | 66.30854 | -51.89334 | 26486 ft | 402 kts | 222° |
| 2026-04-19 11:24 | 66.28619 | -51.93549 | 26812 ft | 404 kts | 222° |
| 2026-04-19 11:24 | 66.26379 | -51.97762 | 27144 ft | 405 kts | 222° |
| 2026-04-19 11:24 | 66.24122 | -52.01999 | 27459 ft | 407 kts | 222° |
| 2026-04-19 11:25 | 66.21855 | -52.06245 | 27757 ft | 409 kts | 222° |
| 2026-04-19 11:25 | 66.19580 | -52.10407 | 27820 ft | 403 kts | 219° |
| 2026-04-19 11:25 | 66.17203 | -52.13833 | 27821 ft | 400 kts | 212° |
| 2026-04-19 11:25 | 66.14693 | -52.16809 | 27830 ft | 400 kts | 211° |
| 2026-04-19 11:26 | 66.12151 | -52.19614 | 27832 ft | 401 kts | 210° |
| 2026-04-19 11:26 | 66.09581 | -52.22328 | 27815 ft | 401 kts | 209° |
| 2026-04-19 11:26 | 66.07011 | -52.24984 | 27827 ft | 401 kts | 208° |
| 2026-04-19 11:26 | 66.04435 | -52.27626 | 27819 ft | 401 kts | 208° |
| 2026-04-19 11:27 | 66.01861 | -52.30268 | 27808 ft | 401 kts | 208° |
| 2026-04-19 11:27 | 65.99281 | -52.32918 | 27818 ft | 401 kts | 209° |
| 2026-04-19 11:27 | 65.96708 | -52.35570 | 27810 ft | 401 kts | 209° |
| 2026-04-19 11:27 | 65.94135 | -52.38224 | 27813 ft | 401 kts | 209° |
| 2026-04-19 11:28 | 65.91550 | -52.40883 | 27810 ft | 401 kts | 209° |
| 2026-04-19 11:28 | 65.89010 | -52.43488 | 27817 ft | 401 kts | 209° |
| 2026-04-19 11:28 | 65.86436 | -52.46126 | 27812 ft | 401 kts | 208° |
| 2026-04-19 11:28 | 65.83866 | -52.48754 | 27805 ft | 401 kts | 208° |
| 2026-04-19 11:29 | 65.81292 | -52.51379 | 27813 ft | 401 kts | 208° |
| 2026-04-19 11:29 | 65.78715 | -52.53999 | 27814 ft | 401 kts | 208° |
| 2026-04-19 11:29 | 65.76134 | -52.56620 | 27814 ft | 401 kts | 208° |
| 2026-04-19 11:29 | 65.73555 | -52.59233 | 27817 ft | 401 kts | 208° |
| 2026-04-19 11:30 | 65.70970 | -52.61848 | 27810 ft | 401 kts | 208° |
| 2026-04-19 11:30 | 65.68397 | -52.64444 | 27811 ft | 401 kts | 208° |
| 2026-04-19 11:30 | 65.65818 | -52.67038 | 27808 ft | 401 kts | 208° |
| 2026-04-19 11:30 | 65.63233 | -52.69629 | 27811 ft | 401 kts | 208° |
| 2026-04-19 11:31 | 65.60653 | -52.72211 | 27811 ft | 401 kts | 208° |
| 2026-04-19 11:31 | 65.58079 | -52.74785 | 27800 ft | 401 kts | 208° |
| 2026-04-19 11:31 | 65.55532 | -52.77325 | 27811 ft | 401 kts | 208° |
| 2026-04-19 11:31 | 65.52952 | -52.79895 | 27808 ft | 401 kts | 208° |
| 2026-04-19 11:32 | 65.50378 | -52.82454 | 27811 ft | 401 kts | 208° |
| 2026-04-19 11:32 | 65.47791 | -52.85018 | 27805 ft | 401 kts | 208° |
| 2026-04-19 11:32 | 65.45215 | -52.87567 | 27802 ft | 401 kts | 208° |
| 2026-04-19 11:32 | 65.42628 | -52.90095 | 27807 ft | 402 kts | 206° |
| 2026-04-19 11:33 | 65.39927 | -52.92014 | 27802 ft | 408 kts | 199° |
| 2026-04-19 11:33 | 65.37135 | -52.93354 | 27806 ft | 410 kts | 197° |
| 2026-04-19 11:33 | 65.34324 | -52.94491 | 27804 ft | 411 kts | 195° |
| 2026-04-19 11:33 | 65.31493 | -52.95515 | 27809 ft | 412 kts | 194° |
| 2026-04-19 11:34 | 65.28653 | -52.96488 | 27807 ft | 412 kts | 194° |
| 2026-04-19 11:34 | 65.25812 | -52.97450 | 27808 ft | 412 kts | 194° |
| 2026-04-19 11:34 | 65.23010 | -52.98403 | 27807 ft | 412 kts | 194° |
| 2026-04-19 11:34 | 65.20169 | -52.99382 | 27804 ft | 412 kts | 195° |
| 2026-04-19 11:35 | 65.17332 | -53.00370 | 27805 ft | 412 kts | 195° |
| 2026-04-19 11:35 | 65.14492 | -53.01365 | 27799 ft | 412 kts | 195° |
| 2026-04-19 11:35 | 65.11661 | -53.02360 | 27802 ft | 412 kts | 195° |
| 2026-04-19 11:35 | 65.08821 | -53.03359 | 27800 ft | 412 kts | 195° |
| 2026-04-19 11:36 | 65.05986 | -53.04353 | 27800 ft | 412 kts | 195° |
| 2026-04-19 11:36 | 65.03144 | -53.05348 | 27800 ft | 412 kts | 195° |
| 2026-04-19 11:36 | 65.00306 | -53.06339 | 27799 ft | 412 kts | 195° |
| 2026-04-19 11:36 | 64.97469 | -53.07327 | 27798 ft | 412 kts | 195° |
| 2026-04-19 11:37 | 64.94632 | -53.08312 | 27799 ft | 412 kts | 195° |
| 2026-04-19 11:37 | 64.91789 | -53.09298 | 27794 ft | 412 kts | 195° |
| 2026-04-19 11:37 | 64.88951 | -53.10279 | 27797 ft | 412 kts | 195° |
| 2026-04-19 11:37 | 64.86110 | -53.11260 | 27795 ft | 413 kts | 195° |
| 2026-04-19 11:38 | 64.83306 | -53.12225 | 27791 ft | 413 kts | 195° |
| 2026-04-19 11:38 | 64.80449 | -53.13206 | 27796 ft | 413 kts | 195° |
| 2026-04-19 11:38 | 64.77608 | -53.14180 | 27792 ft | 413 kts | 195° |
| 2026-04-19 11:38 | 64.74758 | -53.15155 | 27792 ft | 413 kts | 195° |
| 2026-04-19 11:39 | 64.71912 | -53.16127 | 27792 ft | 413 kts | 195° |
| 2026-04-19 11:39 | 64.69065 | -53.17097 | 27793 ft | 413 kts | 195° |
| 2026-04-19 11:39 | 64.66254 | -53.18052 | 27794 ft | 413 kts | 195° |
| 2026-04-19 11:39 | 64.63419 | -53.19014 | 27795 ft | 413 kts | 195° |
| 2026-04-19 11:40 | 64.60568 | -53.19979 | 27795 ft | 413 kts | 195° |
| 2026-04-19 11:40 | 64.57724 | -53.20940 | 27792 ft | 413 kts | 195° |
| 2026-04-19 11:40 | 64.54882 | -53.21898 | 27793 ft | 413 kts | 195° |
| 2026-04-19 11:40 | 64.52031 | -53.22857 | 27790 ft | 413 kts | 195° |
| 2026-04-19 11:41 | 64.49179 | -53.23814 | 27791 ft | 413 kts | 195° |
| 2026-04-19 11:41 | 64.46334 | -53.24767 | 27791 ft | 413 kts | 195° |
| 2026-04-19 11:41 | 64.43479 | -53.25720 | 27790 ft | 414 kts | 195° |
| 2026-04-19 11:41 | 64.40664 | -53.26659 | 27785 ft | 414 kts | 195° |
| 2026-04-19 11:42 | 64.37810 | -53.27609 | 27789 ft | 414 kts | 195° |
| 2026-04-19 11:42 | 64.34956 | -53.28556 | 27790 ft | 414 kts | 195° |
| 2026-04-19 11:42 | 64.32097 | -53.29504 | 27785 ft | 414 kts | 195° |
| 2026-04-19 11:42 | 64.29243 | -53.30448 | 27787 ft | 414 kts | 195° |
| 2026-04-19 11:43 | 64.26386 | -53.31391 | 27788 ft | 414 kts | 195° |
| 2026-04-19 11:43 | 64.23561 | -53.32322 | 27786 ft | 414 kts | 195° |
| 2026-04-19 11:43 | 64.20705 | -53.33262 | 27787 ft | 415 kts | 195° |
| 2026-04-19 11:43 | 64.17845 | -53.34201 | 27787 ft | 415 kts | 195° |
| 2026-04-19 11:44 | 64.14987 | -53.35138 | 27788 ft | 415 kts | 195° |
| 2026-04-19 11:44 | 64.12120 | -53.36075 | 27783 ft | 415 kts | 195° |
| 2026-04-19 11:44 | 64.09291 | -53.36997 | 27784 ft | 415 kts | 195° |
| 2026-04-19 11:44 | 64.06433 | -53.37926 | 27784 ft | 415 kts | 195° |
| 2026-04-19 11:45 | 64.03564 | -53.38857 | 27784 ft | 415 kts | 195° |
| 2026-04-19 11:45 | 64.00695 | -53.39786 | 27784 ft | 415 kts | 195° |
| 2026-04-19 11:45 | 63.97833 | -53.40711 | 27784 ft | 415 kts | 195° |
| 2026-04-19 11:45 | 63.94974 | -53.41633 | 27785 ft | 415 kts | 196° |
| 2026-04-19 11:46 | 63.92113 | -53.42554 | 27785 ft | 413 kts | 196° |
| 2026-04-19 11:46 | 63.89276 | -53.43457 | 27787 ft | 408 kts | 196° |
| 2026-04-19 11:46 | 63.86500 | -53.44341 | 27785 ft | 406 kts | 196° |
| 2026-04-19 11:46 | 63.83702 | -53.45236 | 27788 ft | 406 kts | 196° |
| 2026-04-19 11:47 | 63.80903 | -53.46134 | 27786 ft | 406 kts | 196° |
| 2026-04-19 11:47 | 63.78103 | -53.47031 | 27778 ft | 406 kts | 196° |
| 2026-04-19 11:47 | 63.75305 | -53.47924 | 27790 ft | 406 kts | 196° |
| 2026-04-19 11:47 | 63.72509 | -53.48814 | 27788 ft | 406 kts | 196° |
| 2026-04-19 11:48 | 63.69707 | -53.49703 | 27779 ft | 406 kts | 196° |
| 2026-04-19 11:48 | 63.67859 | -53.50288 | 27782 ft | 406 kts | 196° |
| 2026-04-19 11:48 | 63.64142 | -53.51462 | 27786 ft | 406 kts | 196° |
| 2026-04-19 11:48 | 63.62255 | -53.52056 | 27783 ft | 406 kts | 196° |
| 2026-04-19 11:49 | 63.58541 | -53.53225 | 27789 ft | 406 kts | 196° |
| 2026-04-19 11:49 | 63.56645 | -53.53820 | 27786 ft | 406 kts | 196° |
| 2026-04-19 11:49 | 63.53876 | -53.54688 | 27786 ft | 407 kts | 196° |
| 2026-04-19 11:49 | 63.51079 | -53.55562 | 27786 ft | 407 kts | 196° |
| 2026-04-19 11:50 | 63.48273 | -53.56438 | 27782 ft | 407 kts | 196° |
| 2026-04-19 11:50 | 63.45468 | -53.57311 | 27787 ft | 407 kts | 196° |
| 2026-04-19 11:50 | 63.42663 | -53.58183 | 27787 ft | 407 kts | 196° |
| 2026-04-19 11:50 | 63.39860 | -53.59052 | 27788 ft | 407 kts | 196° |
| 2026-04-19 11:51 | 63.37052 | -53.59921 | 27787 ft | 407 kts | 196° |
| 2026-04-19 11:51 | 63.34251 | -53.60786 | 27788 ft | 407 kts | 196° |
| 2026-04-19 11:51 | 63.31441 | -53.61653 | 27787 ft | 407 kts | 196° |
| 2026-04-19 11:51 | 63.28637 | -53.62516 | 27789 ft | 407 kts | 196° |
| 2026-04-19 11:52 | 63.25869 | -53.63366 | 27787 ft | 407 kts | 196° |
| 2026-04-19 11:52 | 63.23062 | -53.64227 | 27786 ft | 407 kts | 196° |
| 2026-04-19 11:52 | 63.20251 | -53.65087 | 27784 ft | 407 kts | 196° |
| 2026-04-19 11:52 | 63.17439 | -53.65945 | 27787 ft | 407 kts | 196° |
| 2026-04-19 11:53 | 63.14637 | -53.66800 | 27787 ft | 407 kts | 196° |
| 2026-04-19 11:53 | 63.11829 | -53.67653 | 27786 ft | 407 kts | 196° |
| 2026-04-19 11:53 | 63.09018 | -53.68507 | 27787 ft | 407 kts | 197° |
| 2026-04-19 11:53 | 63.06208 | -53.69358 | 27788 ft | 407 kts | 197° |
| 2026-04-19 11:54 | 63.03399 | -53.70208 | 27787 ft | 407 kts | 196° |
| 2026-04-19 11:54 | 63.00586 | -53.71057 | 27780 ft | 407 kts | 197° |
| 2026-04-19 11:54 | 62.97813 | -53.71892 | 27787 ft | 407 kts | 197° |
| 2026-04-19 11:54 | 62.95005 | -53.72736 | 27792 ft | 407 kts | 197° |
| 2026-04-19 11:55 | 62.92195 | -53.73579 | 27790 ft | 408 kts | 197° |
| 2026-04-19 11:55 | 62.89379 | -53.74423 | 27789 ft | 408 kts | 197° |
| 2026-04-19 11:55 | 62.86567 | -53.75263 | 27789 ft | 408 kts | 197° |
| 2026-04-19 11:55 | 62.83744 | -53.76105 | 27787 ft | 408 kts | 197° |
| 2026-04-19 11:56 | 62.80931 | -53.76942 | 27786 ft | 408 kts | 197° |
| 2026-04-19 11:56 | 62.78114 | -53.77779 | 27785 ft | 408 kts | 197° |
| 2026-04-19 11:56 | 62.75327 | -53.78606 | 27787 ft | 408 kts | 197° |
| 2026-04-19 11:56 | 62.72498 | -53.79443 | 27788 ft | 408 kts | 197° |
| 2026-04-19 11:57 | 62.69677 | -53.80277 | 27789 ft | 409 kts | 197° |
| 2026-04-19 11:57 | 62.66857 | -53.81109 | 27788 ft | 409 kts | 197° |
| 2026-04-19 11:57 | 62.64039 | -53.81938 | 27785 ft | 409 kts | 197° |
| 2026-04-19 11:57 | 62.61206 | -53.82770 | 27786 ft | 409 kts | 197° |
| 2026-04-19 11:58 | 62.58424 | -53.83586 | 27789 ft | 409 kts | 197° |
| 2026-04-19 11:58 | 62.55598 | -53.84413 | 27787 ft | 410 kts | 197° |
| 2026-04-19 11:58 | 62.52760 | -53.85242 | 27786 ft | 410 kts | 197° |
| 2026-04-19 11:58 | 62.49926 | -53.86068 | 27791 ft | 410 kts | 197° |
| 2026-04-19 11:59 | 62.47094 | -53.86892 | 27788 ft | 410 kts | 197° |
| 2026-04-19 11:59 | 62.44253 | -53.87717 | 27786 ft | 410 kts | 197° |
| 2026-04-19 11:59 | 62.41459 | -53.88527 | 27788 ft | 411 kts | 197° |
| 2026-04-19 11:59 | 62.38624 | -53.89347 | 27790 ft | 411 kts | 197° |
| 2026-04-19 12:00 | 62.35786 | -53.90167 | 27791 ft | 411 kts | 197° |
| 2026-04-19 12:00 | 62.32953 | -53.90982 | 27790 ft | 411 kts | 196° |
| 2026-04-19 12:00 | 62.30116 | -53.91798 | 27788 ft | 411 kts | 196° |
| 2026-04-19 12:00 | 62.27274 | -53.92613 | 27792 ft | 411 kts | 196° |
| 2026-04-19 12:01 | 62.24437 | -53.93426 | 27789 ft | 411 kts | 196° |
| 2026-04-19 12:01 | 62.21603 | -53.94237 | 27789 ft | 412 kts | 196° |
| 2026-04-19 12:01 | 62.18767 | -53.95047 | 27790 ft | 412 kts | 196° |
| 2026-04-19 12:01 | 62.15920 | -53.95858 | 27791 ft | 412 kts | 196° |
| 2026-04-19 12:02 | 62.13080 | -53.96665 | 27789 ft | 412 kts | 196° |
| 2026-04-19 12:02 | 62.10237 | -53.97472 | 27789 ft | 412 kts | 196° |
| 2026-04-19 12:02 | 62.07393 | -53.98278 | 27792 ft | 412 kts | 196° |
| 2026-04-19 12:02 | 62.04579 | -53.99074 | 27791 ft | 412 kts | 196° |
| 2026-04-19 12:03 | 62.01727 | -53.99879 | 27789 ft | 412 kts | 196° |
| 2026-04-19 12:03 | 61.98882 | -54.00680 | 27789 ft | 412 kts | 196° |
| 2026-04-19 12:03 | 61.96034 | -54.01481 | 27793 ft | 412 kts | 196° |
| 2026-04-19 12:03 | 61.93189 | -54.02279 | 27794 ft | 412 kts | 196° |
| 2026-04-19 12:04 | 61.90342 | -54.03076 | 27793 ft | 412 kts | 196° |
| 2026-04-19 12:04 | 61.87536 | -54.03861 | 27797 ft | 412 kts | 196° |
| 2026-04-19 12:04 | 61.84684 | -54.04656 | 27795 ft | 412 kts | 196° |
| 2026-04-19 12:04 | 61.81850 | -54.05446 | 27792 ft | 411 kts | 196° |
| 2026-04-19 12:05 | 61.78996 | -54.06239 | 27793 ft | 411 kts | 196° |
| 2026-04-19 12:05 | 61.76157 | -54.07027 | 27793 ft | 411 kts | 196° |
| 2026-04-19 12:05 | 61.73317 | -54.07814 | 27793 ft | 411 kts | 196° |
| 2026-04-19 12:05 | 61.70475 | -54.08600 | 27794 ft | 411 kts | 196° |
| 2026-04-19 12:06 | 61.67677 | -54.09372 | 27794 ft | 411 kts | 196° |
| 2026-04-19 12:06 | 61.64845 | -54.10152 | 27787 ft | 411 kts | 196° |
| 2026-04-19 12:06 | 61.62013 | -54.10931 | 27796 ft | 411 kts | 196° |
| 2026-04-19 12:06 | 61.59181 | -54.11708 | 27794 ft | 410 kts | 196° |
| 2026-04-19 12:07 | 61.56344 | -54.12486 | 27795 ft | 410 kts | 196° |
| 2026-04-19 12:07 | 61.53509 | -54.13261 | 27787 ft | 410 kts | 196° |
| 2026-04-19 12:07 | 61.50669 | -54.14036 | 27798 ft | 410 kts | 196° |
| 2026-04-19 12:07 | 61.47844 | -54.14806 | 27787 ft | 410 kts | 196° |
| 2026-04-19 12:08 | 61.45040 | -54.15568 | 27796 ft | 410 kts | 196° |
| 2026-04-19 12:08 | 61.42215 | -54.16335 | 27793 ft | 410 kts | 196° |
| 2026-04-19 12:08 | 61.39384 | -54.17102 | 27794 ft | 409 kts | 196° |
| 2026-04-19 12:08 | 61.36554 | -54.17867 | 27795 ft | 409 kts | 196° |
| 2026-04-19 12:09 | 61.33723 | -54.18631 | 27797 ft | 409 kts | 196° |
| 2026-04-19 12:09 | 61.30896 | -54.19393 | 27795 ft | 409 kts | 196° |
| 2026-04-19 12:09 | 61.28073 | -54.20153 | 27797 ft | 409 kts | 196° |
| 2026-04-19 12:09 | 61.25287 | -54.20901 | 27796 ft | 409 kts | 196° |
| 2026-04-19 12:10 | 61.22467 | -54.21657 | 27799 ft | 408 kts | 196° |
| 2026-04-19 12:10 | 61.19647 | -54.22411 | 27798 ft | 408 kts | 196° |
| 2026-04-19 12:10 | 61.16828 | -54.23164 | 27799 ft | 408 kts | 196° |
| 2026-04-19 12:10 | 61.14013 | -54.23914 | 27800 ft | 408 kts | 196° |
| 2026-04-19 12:11 | 61.11198 | -54.24663 | 27798 ft | 408 kts | 196° |
| 2026-04-19 12:11 | 61.08382 | -54.25411 | 27798 ft | 408 kts | 196° |
| 2026-04-19 12:11 | 61.05566 | -54.26157 | 27799 ft | 407 kts | 196° |
| 2026-04-19 12:11 | 61.02747 | -54.26903 | 27796 ft | 407 kts | 196° |
| 2026-04-19 12:12 | 60.99934 | -54.27646 | 27798 ft | 407 kts | 196° |
| 2026-04-19 12:12 | 60.97157 | -54.28379 | 27798 ft | 407 kts | 196° |
| 2026-04-19 12:12 | 60.94343 | -54.29120 | 27802 ft | 407 kts | 196° |
| 2026-04-19 12:12 | 60.91537 | -54.29858 | 27803 ft | 407 kts | 196° |
| 2026-04-19 12:13 | 60.88727 | -54.30595 | 27799 ft | 407 kts | 196° |
| 2026-04-19 12:13 | 60.85917 | -54.31332 | 27796 ft | 406 kts | 196° |
| 2026-04-19 12:13 | 60.83107 | -54.32067 | 27798 ft | 406 kts | 196° |
| 2026-04-19 12:13 | 60.80298 | -54.32801 | 27797 ft | 406 kts | 196° |
| 2026-04-19 12:14 | 60.77492 | -54.33531 | 27798 ft | 406 kts | 196° |
| 2026-04-19 12:14 | 60.74684 | -54.34261 | 27794 ft | 406 kts | 196° |
| 2026-04-19 12:14 | 60.71884 | -54.34988 | 27797 ft | 406 kts | 196° |
| 2026-04-19 12:14 | 60.69077 | -54.35715 | 27797 ft | 406 kts | 196° |
| 2026-04-19 12:15 | 60.66280 | -54.36438 | 27801 ft | 406 kts | 196° |
| 2026-04-19 12:15 | 60.63511 | -54.37153 | 27797 ft | 406 kts | 196° |
| 2026-04-19 12:15 | 60.60701 | -54.37877 | 27797 ft | 406 kts | 196° |
| 2026-04-19 12:15 | 60.57900 | -54.38598 | 27796 ft | 405 kts | 197° |
| 2026-04-19 12:16 | 60.55103 | -54.39317 | 27798 ft | 406 kts | 197° |
| 2026-04-19 12:16 | 60.52305 | -54.40035 | 27800 ft | 406 kts | 197° |
| 2026-04-19 12:16 | 60.49498 | -54.40754 | 27799 ft | 406 kts | 197° |
| 2026-04-19 12:16 | 60.46704 | -54.41468 | 27805 ft | 406 kts | 196° |
| 2026-04-19 12:17 | 60.43892 | -54.42185 | 27799 ft | 406 kts | 196° |
| 2026-04-19 12:17 | 60.41093 | -54.42898 | 27799 ft | 406 kts | 196° |
| 2026-04-19 12:17 | 60.38327 | -54.43601 | 27800 ft | 406 kts | 196° |
| 2026-04-19 12:17 | 60.35491 | -54.44321 | 27799 ft | 406 kts | 196° |
| 2026-04-19 12:18 | 60.32728 | -54.45020 | 27800 ft | 405 kts | 196° |
| 2026-04-19 12:18 | 60.29920 | -54.45730 | 27791 ft | 405 kts | 196° |
| 2026-04-19 12:18 | 60.27118 | -54.46438 | 27797 ft | 405 kts | 196° |
| 2026-04-19 12:18 | 60.24327 | -54.47141 | 27791 ft | 405 kts | 196° |
| 2026-04-19 12:19 | 60.21529 | -54.47845 | 27792 ft | 405 kts | 196° |
| 2026-04-19 12:19 | 60.18724 | -54.48550 | 27793 ft | 405 kts | 196° |
| 2026-04-19 12:19 | 60.15921 | -54.49252 | 27794 ft | 405 kts | 196° |
| 2026-04-19 12:19 | 60.13119 | -54.49954 | 27793 ft | 405 kts | 196° |
| 2026-04-19 12:20 | 60.10321 | -54.50653 | 27790 ft | 405 kts | 196° |
| 2026-04-19 12:20 | 60.07521 | -54.51351 | 27792 ft | 405 kts | 196° |
| 2026-04-19 12:20 | 60.04720 | -54.52049 | 27789 ft | 405 kts | 196° |
| 2026-04-19 12:20 | 60.01956 | -54.52736 | 27788 ft | 405 kts | 196° |